createdAt,value
2023-05-19T00:00:15.013Z,32.30
2023-05-19T00:03:05.335Z,32.02
2023-05-19T00:05:34.785Z,32.28
2023-05-19T00:08:04.523Z,32.02
2023-05-19T00:10:33.895Z,32.11
2023-05-19T00:13:03.029Z,31.92
2023-05-19T00:15:32.546Z,31.75
2023-05-19T00:18:01.235Z,31.98
2023-05-19T00:20:31.315Z,31.51
2023-05-19T00:22:59.949Z,31.96
2023-05-19T00:25:28.511Z,31.98
2023-05-19T00:27:58.690Z,31.89
2023-05-19T00:30:27.446Z,32.18
2023-05-19T00:32:56.021Z,31.97
2023-05-19T00:35:24.706Z,31.97
2023-05-19T00:37:54.424Z,31.67
2023-05-19T00:40:24.173Z,31.73
2023-05-19T00:42:52.496Z,31.81
2023-05-19T00:45:21.154Z,31.93
2023-05-19T00:47:50.127Z,31.85
2023-05-19T00:50:18.682Z,31.60
2023-05-19T00:52:47.286Z,31.69
2023-05-19T00:55:17.453Z,31.40
2023-05-19T00:57:46.411Z,31.53
2023-05-19T01:00:16.472Z,31.41
2023-05-19T01:02:44.798Z,31.70
2023-05-19T01:05:14.258Z,31.31
2023-05-19T01:07:42.747Z,31.36
2023-05-19T01:10:12.382Z,31.20
2023-05-19T01:12:42.294Z,31.26
2023-05-19T01:15:12.152Z,31.28
2023-05-19T01:17:44.999Z,31.17
2023-05-19T01:20:18.575Z,30.89
2023-05-19T01:23:15.758Z,30.30
2023-05-19T01:26:11.440Z,30.62
2023-05-19T01:29:05.224Z,30.85
2023-05-19T01:31:35.511Z,31.80
2023-05-19T01:34:06.059Z,32.47
2023-05-19T01:36:35.368Z,32.76
2023-05-19T01:39:04.523Z,32.69
2023-05-19T01:41:34.326Z,32.74
2023-05-19T01:44:02.722Z,32.86
2023-05-19T01:46:31.502Z,33.27
2023-05-19T01:49:01.705Z,32.86
2023-05-19T01:51:31.654Z,32.88
2023-05-19T01:53:59.980Z,33.09
2023-05-19T01:56:35.931Z,32.70
2023-05-19T01:59:10.441Z,33.09
2023-05-19T02:01:43.279Z,33.40
2023-05-19T02:04:21.622Z,33.59
2023-05-19T02:06:57.292Z,33.33
2023-05-19T02:09:31.108Z,33.81
2023-05-19T02:12:04.388Z,33.98
2023-05-19T02:14:35.638Z,34.01
2023-05-19T02:17:06.146Z,33.82
2023-05-19T02:19:40.688Z,34.11
2023-05-19T02:22:09.901Z,33.82
2023-05-19T02:24:38.159Z,34.10
2023-05-19T02:27:07.736Z,34.08
2023-05-19T02:29:36.083Z,34.15
2023-05-19T02:32:04.982Z,33.64
2023-05-19T02:34:33.930Z,33.73
2023-05-19T02:37:03.877Z,33.53
2023-05-19T02:39:35.440Z,34.52
2023-05-19T02:42:04.148Z,33.85
2023-05-19T02:44:32.704Z,34.32
2023-05-19T02:47:01.302Z,33.82
2023-05-19T02:49:30.948Z,33.71
2023-05-19T02:52:00.310Z,33.91
2023-05-19T02:54:30.391Z,33.72
2023-05-19T02:56:59.533Z,33.97
2023-05-19T02:59:28.119Z,33.90
2023-05-19T03:01:57.814Z,33.83
2023-05-19T03:04:26.301Z,33.67
2023-05-19T03:06:55.261Z,33.70
2023-05-19T03:09:23.583Z,33.51
2023-05-19T03:11:53.464Z,33.03
2023-05-19T03:14:24.103Z,33.22
2023-05-19T03:16:53.269Z,33.25
2023-05-19T03:19:21.814Z,33.38
2023-05-19T03:21:50.918Z,33.36
2023-05-19T03:24:19.384Z,33.14
2023-05-19T03:26:47.931Z,33.15
2023-05-19T03:29:18.226Z,33.04
2023-05-19T03:31:46.933Z,33.03
2023-05-19T03:34:15.362Z,33.08
2023-05-19T03:36:45.276Z,33.23
2023-05-19T03:39:13.605Z,33.28
2023-05-19T03:41:42.440Z,33.45
2023-05-19T03:44:10.705Z,33.28
2023-05-19T03:46:40.850Z,32.97
2023-05-19T03:49:09.181Z,32.87
2023-05-19T03:51:37.804Z,32.88
2023-05-19T03:54:07.006Z,32.66
2023-05-19T03:56:35.612Z,32.74
2023-05-19T03:59:06.421Z,32.29
2023-05-19T04:01:35.107Z,32.33
2023-05-19T04:04:05.233Z,32.19
2023-05-19T04:06:33.993Z,32.51
2023-05-19T04:09:05.077Z,32.44
2023-05-19T04:11:33.877Z,32.84
2023-05-19T04:14:02.232Z,32.92
2023-05-19T04:16:30.959Z,32.94
2023-05-19T04:18:59.464Z,32.99
2023-05-19T04:21:29.543Z,32.40
2023-05-19T04:24:00.229Z,32.46
2023-05-19T04:26:31.227Z,32.50
2023-05-19T04:28:59.584Z,33.32
2023-05-19T04:31:28.855Z,33.29
2023-05-19T04:33:57.382Z,34.26
2023-05-19T04:36:25.991Z,33.37
2023-05-19T04:39:02.379Z,33.02
2023-05-19T04:41:30.961Z,33.96
2023-05-19T04:43:59.530Z,34.26
2023-05-19T04:46:30.158Z,34.11
2023-05-19T04:49:01.353Z,33.75
2023-05-19T04:51:31.578Z,32.48
2023-05-19T04:54:01.621Z,34.07
2023-05-19T04:56:30.323Z,34.41
2023-05-19T04:58:59.275Z,33.96
2023-05-19T05:01:28.056Z,33.57
2023-05-19T05:03:59.273Z,33.95
2023-05-19T05:06:28.647Z,34.44
2023-05-19T05:08:57.885Z,34.41
2023-05-19T05:11:28.526Z,34.76
2023-05-19T05:13:58.318Z,33.95
2023-05-19T05:16:28.418Z,34.12
2023-05-19T05:18:57.578Z,34.38
2023-05-19T05:21:26.845Z,34.09
2023-05-19T05:23:55.930Z,34.64
2023-05-19T05:26:24.928Z,33.19
2023-05-19T05:28:54.746Z,33.06
2023-05-19T05:31:23.871Z,33.75
2023-05-19T05:33:52.310Z,33.61
2023-05-19T05:36:21.322Z,33.13
2023-05-19T05:38:49.626Z,33.76
2023-05-19T05:41:18.189Z,33.13
2023-05-19T05:43:46.493Z,33.04
2023-05-19T05:46:16.423Z,32.31
2023-05-19T05:48:45.644Z,32.32
2023-05-19T05:51:14.811Z,33.21
2023-05-19T05:53:46.437Z,32.05
2023-05-19T05:56:17.121Z,32.66
2023-05-19T05:58:45.322Z,32.49
2023-05-19T06:01:13.902Z,31.92
2023-05-19T06:03:45.205Z,31.68
2023-05-19T06:06:14.553Z,32.17
2023-05-19T06:08:43.230Z,32.30
2023-05-19T06:11:12.104Z,31.89
2023-05-19T06:13:41.551Z,31.68
2023-05-19T06:16:10.375Z,31.33
2023-05-19T06:18:38.725Z,31.15
2023-05-19T06:21:10.409Z,30.89
2023-05-19T06:23:38.643Z,30.38
2023-05-19T06:26:07.239Z,31.61
2023-05-19T06:28:35.635Z,31.77
2023-05-19T06:31:04.756Z,31.60
2023-05-19T06:33:33.088Z,31.45
2023-05-19T06:36:01.765Z,31.24
2023-05-19T06:38:31.876Z,31.33
2023-05-19T06:41:00.472Z,31.36
2023-05-19T06:43:29.198Z,31.43
2023-05-19T06:45:57.879Z,31.62
2023-05-19T06:48:26.505Z,30.98
2023-05-19T06:50:56.154Z,30.86
2023-05-19T06:53:24.511Z,31.16
2023-05-19T06:55:59.829Z,30.56
2023-05-19T06:58:29.003Z,31.21
2023-05-19T07:00:57.658Z,31.03
2023-05-19T07:03:26.216Z,31.31
2023-05-19T07:05:55.142Z,31.40
2023-05-19T07:08:23.432Z,32.18
2023-05-19T07:10:51.992Z,31.96
2023-05-19T07:13:21.563Z,32.10
2023-05-19T07:15:50.124Z,32.13
2023-05-19T07:18:18.363Z,32.40
2023-05-19T07:20:47.105Z,32.68
2023-05-19T07:23:17.220Z,32.28
2023-05-19T07:25:46.142Z,31.31
2023-05-19T07:28:14.338Z,30.82
2023-05-19T07:30:45.055Z,31.08
2023-05-19T07:33:13.300Z,31.62
2023-05-19T07:35:41.962Z,31.48
2023-05-19T07:38:10.382Z,31.79
2023-05-19T07:40:39.237Z,31.50
2023-05-19T07:43:07.413Z,32.77
2023-05-19T07:45:36.233Z,32.46
2023-05-19T07:48:06.122Z,31.33
2023-05-19T07:50:34.814Z,30.97
2023-05-19T07:53:03.307Z,31.14
2023-05-19T07:55:32.084Z,30.91
2023-05-19T07:58:00.656Z,30.54
2023-05-19T08:00:29.368Z,30.23
2023-05-19T08:02:58.207Z,30.64
2023-05-19T08:05:28.318Z,29.61
2023-05-19T08:07:57.726Z,29.28
2023-05-19T08:10:26.366Z,29.91
2023-05-19T08:12:54.896Z,30.31
2023-05-19T08:15:23.653Z,30.17
2023-05-19T08:17:51.904Z,30.20
2023-05-19T08:20:22.741Z,30.17
2023-05-19T08:22:52.450Z,30.01
2023-05-19T08:25:21.478Z,29.56
2023-05-19T08:27:49.732Z,29.50
2023-05-19T08:30:18.295Z,29.91
2023-05-19T08:32:47.249Z,29.96
2023-05-19T08:35:15.971Z,30.45
2023-05-19T08:37:44.245Z,30.11
2023-05-19T08:40:18.390Z,29.10
2023-05-19T08:42:46.917Z,29.14
2023-05-19T08:45:15.578Z,28.89
2023-05-19T08:47:46.988Z,27.92
2023-05-19T08:50:19.092Z,27.70
2023-05-19T08:52:53.432Z,27.70
2023-05-19T08:55:34.312Z,27.76
2023-05-19T08:58:03.257Z,28.49
2023-05-19T09:00:32.669Z,28.50
2023-05-19T09:03:17.501Z,28.67
2023-05-19T09:05:47.596Z,28.09
2023-05-19T09:08:16.284Z,28.48
2023-05-19T09:10:46.362Z,28.23
2023-05-19T09:13:15.091Z,28.11
2023-05-19T09:15:43.616Z,27.42
2023-05-19T09:18:13.128Z,26.65
2023-05-19T09:20:43.487Z,26.07
2023-05-19T09:23:14.927Z,26.16
2023-05-19T09:25:52.044Z,26.19
2023-05-19T09:28:27.415Z,26.00
2023-05-19T09:31:03.175Z,27.05
2023-05-19T09:33:32.184Z,27.71
2023-05-19T09:36:01.319Z,28.11
2023-05-19T09:38:29.738Z,28.10
2023-05-19T09:41:01.103Z,27.62
2023-05-19T09:43:30.427Z,28.14
2023-05-19T09:46:01.602Z,28.19
2023-05-19T09:48:30.673Z,28.28
2023-05-19T09:50:59.352Z,28.56
2023-05-19T09:53:27.878Z,28.44
2023-05-19T09:55:58.868Z,28.84
2023-05-19T09:58:32.233Z,28.37
2023-05-19T10:01:01.348Z,28.72
2023-05-19T10:03:29.951Z,28.00
2023-05-19T10:05:59.060Z,28.06
2023-05-19T10:08:30.054Z,27.54
2023-05-19T10:10:58.635Z,25.62
2023-05-19T10:13:28.449Z,27.77
2023-05-19T10:15:59.258Z,27.90
2023-05-19T10:18:29.960Z,27.77
2023-05-19T10:20:59.170Z,27.98
2023-05-19T10:23:27.694Z,28.07
2023-05-19T10:25:57.895Z,27.10
2023-05-19T10:28:32.189Z,27.83
2023-05-19T10:31:01.811Z,28.06
2023-05-19T10:33:53.102Z,27.19
2023-05-19T10:36:35.966Z,27.49
2023-05-19T10:39:08.209Z,27.14
2023-05-19T10:41:43.988Z,27.09
2023-05-19T10:44:24.822Z,26.51
2023-05-19T10:46:55.007Z,26.71
2023-05-19T10:49:24.737Z,25.85
2023-05-19T10:51:54.315Z,26.60
2023-05-19T10:54:40.921Z,26.20
2023-05-19T10:57:10.044Z,28.20
2023-05-19T10:59:40.040Z,28.64
2023-05-19T11:02:10.052Z,29.15
2023-05-19T11:04:49.499Z,28.09
2023-05-19T11:07:21.818Z,28.56
2023-05-19T11:09:52.679Z,27.67
2023-05-19T11:12:24.721Z,26.74
2023-05-19T11:14:56.126Z,26.08
2023-05-19T11:17:27.553Z,25.99
2023-05-19T11:19:57.314Z,25.90
2023-05-19T11:22:27.048Z,26.19
2023-05-19T11:24:56.661Z,26.46
2023-05-19T11:27:27.974Z,25.99
2023-05-19T11:29:59.467Z,25.32
2023-05-19T11:32:29.997Z,25.25
2023-05-19T11:34:59.430Z,25.60
2023-05-19T11:37:29.048Z,26.25
2023-05-19T11:39:57.357Z,25.81
2023-05-19T11:42:26.021Z,25.45
2023-05-19T11:44:57.845Z,24.57
2023-05-19T11:47:26.701Z,24.54
2023-05-19T11:49:56.892Z,24.21
2023-05-19T11:52:27.579Z,24.05
2023-05-19T11:54:56.952Z,23.98
2023-05-19T11:57:25.842Z,24.09
2023-05-19T11:59:56.839Z,24.67
2023-05-19T12:02:28.003Z,25.40
2023-05-19T12:04:56.924Z,25.34
2023-05-19T12:07:26.606Z,24.90
2023-05-19T12:09:56.560Z,23.79
2023-05-19T12:12:25.271Z,24.15
2023-05-19T12:14:54.015Z,24.54
2023-05-19T12:17:24.315Z,24.39
2023-05-19T12:19:54.439Z,24.29
2023-05-19T12:22:23.139Z,24.61
2023-05-19T12:24:52.827Z,24.80
2023-05-19T12:27:24.489Z,24.39
2023-05-19T12:29:53.354Z,22.99
2023-05-19T12:32:25.626Z,23.48
2023-05-19T12:34:57.214Z,23.63
2023-05-19T12:37:30.261Z,24.07
2023-05-19T12:39:58.682Z,24.37
2023-05-19T12:42:31.375Z,24.02
2023-05-19T12:45:03.144Z,24.18
2023-05-19T12:47:34.939Z,24.21
2023-05-19T12:50:06.042Z,24.01
2023-05-19T12:52:37.413Z,24.45
2023-05-19T12:55:07.913Z,24.60
2023-05-19T12:57:36.946Z,25.12
2023-05-19T13:00:08.615Z,25.38
2023-05-19T13:02:38.384Z,25.59
2023-05-19T13:05:09.339Z,25.10
2023-05-19T13:07:37.889Z,25.49
2023-05-19T13:10:07.111Z,25.41
2023-05-19T13:12:35.997Z,25.25
2023-05-19T13:15:04.932Z,24.94
2023-05-19T13:17:34.913Z,25.72
2023-05-19T13:20:03.922Z,25.98
2023-05-19T13:22:34.237Z,25.69
2023-05-19T13:25:02.787Z,25.45
2023-05-19T13:27:31.413Z,24.68
2023-05-19T13:29:59.979Z,24.84
2023-05-19T13:32:28.659Z,24.62
2023-05-19T13:34:57.801Z,25.06
2023-05-19T13:37:28.458Z,25.25
2023-05-19T13:39:58.696Z,24.85
2023-05-19T13:42:27.407Z,25.46
2023-05-19T13:44:56.443Z,25.32
2023-05-19T13:47:25.658Z,25.66
2023-05-19T13:49:54.901Z,25.68
2023-05-19T13:52:23.529Z,26.08
2023-05-19T13:54:54.767Z,26.06
2023-05-19T13:57:25.713Z,25.74
2023-05-19T14:00:02.822Z,26.31
2023-05-19T14:02:32.872Z,27.20
2023-05-19T14:05:01.328Z,27.16
2023-05-19T14:07:30.563Z,27.76
2023-05-19T14:09:59.063Z,27.77
2023-05-19T14:12:41.375Z,27.64
2023-05-19T14:15:16.079Z,28.24
2023-05-19T14:17:44.855Z,27.87
2023-05-19T14:20:13.844Z,26.81
2023-05-19T14:22:42.384Z,26.72
2023-05-19T14:25:11.152Z,26.98
2023-05-19T14:27:41.325Z,26.92
2023-05-19T14:30:10.823Z,27.99
2023-05-19T14:32:39.672Z,28.58
2023-05-19T14:35:09.132Z,28.13
2023-05-19T14:37:37.786Z,28.46
2023-05-19T14:40:07.025Z,28.89
2023-05-19T14:42:35.587Z,28.67
2023-05-19T14:45:05.700Z,28.67
2023-05-19T14:47:34.380Z,28.67
2023-05-19T14:50:02.764Z,28.27
2023-05-19T14:52:31.659Z,27.75
2023-05-19T14:55:01.164Z,27.81
2023-05-19T14:57:29.876Z,28.13
2023-05-19T14:59:58.461Z,27.96
2023-05-19T15:02:29.791Z,27.70
2023-05-19T15:04:58.245Z,27.82
2023-05-19T15:07:27.630Z,27.10
2023-05-19T15:09:56.096Z,27.34
2023-05-19T15:12:24.946Z,28.26
2023-05-19T15:14:53.612Z,27.67
2023-05-19T15:17:22.327Z,28.56
2023-05-19T15:19:52.322Z,28.31
2023-05-19T15:22:21.303Z,28.72
2023-05-19T15:24:49.829Z,28.32
2023-05-19T15:27:18.501Z,28.69
2023-05-19T15:29:46.875Z,28.74
2023-05-19T15:32:15.451Z,28.59
2023-05-19T15:34:44.209Z,29.04
2023-05-19T15:37:14.257Z,28.95
2023-05-19T15:39:42.725Z,29.28
2023-05-19T15:42:11.378Z,29.84
2023-05-19T15:44:39.711Z,29.62
2023-05-19T15:47:08.255Z,30.04
2023-05-19T15:49:36.670Z,30.32
2023-05-19T15:52:05.628Z,30.39
2023-05-19T15:54:35.854Z,30.45
2023-05-19T15:57:04.553Z,30.28
2023-05-19T15:59:32.883Z,29.65
2023-05-19T16:02:01.949Z,30.97
2023-05-19T16:04:30.378Z,30.67
2023-05-19T16:06:59.548Z,30.45
2023-05-19T16:09:27.917Z,30.26
2023-05-19T16:12:01.220Z,29.72
2023-05-19T16:14:31.167Z,30.34
2023-05-19T16:17:01.532Z,30.94
2023-05-19T16:19:29.902Z,30.09
2023-05-19T16:21:58.491Z,29.64
2023-05-19T16:24:28.567Z,29.90
2023-05-19T16:26:57.138Z,30.91
2023-05-19T16:29:26.902Z,30.28
2023-05-19T16:31:55.430Z,30.58
2023-05-19T16:34:23.890Z,30.54
2023-05-19T16:36:52.625Z,30.29
2023-05-19T16:39:21.101Z,31.37
2023-05-19T16:41:50.504Z,31.30
2023-05-19T16:44:19.055Z,30.66
2023-05-19T16:46:48.951Z,30.56
2023-05-19T16:49:17.329Z,30.72
2023-05-19T16:51:47.532Z,30.40
2023-05-19T16:54:17.304Z,30.49
2023-05-19T16:56:46.284Z,30.60
2023-05-19T16:59:14.727Z,30.18
2023-05-19T17:01:43.280Z,31.34
2023-05-19T17:04:13.341Z,30.56
2023-05-19T17:06:42.026Z,31.54
2023-05-19T17:09:10.219Z,32.54
2023-05-19T17:11:39.058Z,31.04
2023-05-19T17:14:09.272Z,31.76
2023-05-19T17:16:38.301Z,32.19
2023-05-19T17:19:06.841Z,32.30
2023-05-19T17:21:36.786Z,32.01
2023-05-19T17:24:05.274Z,31.99
2023-05-19T17:26:34.111Z,31.40
2023-05-19T17:29:02.280Z,33.01
2023-05-19T17:31:30.958Z,33.04
2023-05-19T17:33:59.333Z,32.83
2023-05-19T17:36:28.036Z,32.48
2023-05-19T17:38:57.900Z,32.34
2023-05-19T17:41:26.490Z,32.26
2023-05-19T17:43:54.954Z,32.97
2023-05-19T17:46:23.843Z,33.17
2023-05-19T17:48:52.209Z,33.31
2023-05-19T17:51:21.700Z,33.95
2023-05-19T17:53:50.502Z,32.97
2023-05-19T17:56:22.255Z,33.14
2023-05-19T17:58:51.282Z,34.09
2023-05-19T18:01:23.953Z,35.14
2023-05-19T18:04:04.794Z,34.13
2023-05-19T18:06:48.234Z,33.60
2023-05-19T18:09:18.537Z,33.37
2023-05-19T18:11:52.110Z,33.22
2023-05-19T18:14:41.954Z,33.06
2023-05-19T18:17:27.335Z,33.50
2023-05-19T18:19:59.075Z,33.84
2023-05-19T18:22:27.765Z,34.16
2023-05-19T18:24:57.633Z,33.76
2023-05-19T18:27:33.799Z,33.62
2023-05-19T18:30:02.177Z,34.06
2023-05-19T18:32:50.437Z,32.98
2023-05-19T18:35:20.816Z,34.71
2023-05-19T18:37:49.593Z,34.35
2023-05-19T18:40:18.151Z,34.07
2023-05-19T18:42:48.345Z,34.32
2023-05-19T18:45:17.134Z,35.04
2023-05-19T18:47:45.897Z,34.39
2023-05-19T18:50:14.612Z,35.00
2023-05-19T18:52:43.775Z,34.06
2023-05-19T18:55:12.166Z,35.35
2023-05-19T18:57:42.119Z,33.94
2023-05-19T19:00:13.638Z,34.43
2023-05-19T19:02:42.420Z,33.71
2023-05-19T19:05:11.283Z,34.05
2023-05-19T19:07:41.414Z,34.04
2023-05-19T19:10:28.680Z,33.67
2023-05-19T19:13:08.399Z,35.10
2023-05-19T19:15:45.049Z,35.78
2023-05-19T19:18:14.262Z,35.00
2023-05-19T19:20:42.996Z,34.69
2023-05-19T19:23:11.806Z,34.22
2023-05-19T19:25:40.247Z,35.53
2023-05-19T19:28:10.740Z,34.42
2023-05-19T19:30:47.751Z,34.31
2023-05-19T19:33:19.307Z,35.17
2023-05-19T19:36:00.765Z,34.46
2023-05-19T19:38:29.718Z,35.43
2023-05-19T19:40:58.194Z,36.21
2023-05-19T19:43:27.132Z,35.51
2023-05-19T19:46:01.830Z,34.14
2023-05-19T19:48:30.641Z,35.52
2023-05-19T19:50:59.176Z,34.89
2023-05-19T19:53:28.255Z,34.63
2023-05-19T19:56:00.110Z,34.55
2023-05-19T19:58:29.543Z,35.27
2023-05-19T20:00:58.839Z,34.91
2023-05-19T20:03:29.638Z,34.08
2023-05-19T20:05:58.135Z,34.96
2023-05-19T20:08:27.326Z,35.75
2023-05-19T20:10:56.010Z,35.79
2023-05-19T20:13:25.601Z,35.59
2023-05-19T20:15:54.241Z,34.81
2023-05-19T20:18:23.353Z,35.81
2023-05-19T20:20:53.070Z,36.21
2023-05-19T20:26:02.897Z,35.84
2023-05-19T20:28:38.145Z,35.42
2023-05-19T20:31:07.139Z,35.46
2023-05-19T20:33:35.646Z,36.47
2023-05-19T20:36:06.507Z,35.28
2023-05-19T20:38:35.054Z,35.22
2023-05-19T20:41:03.963Z,35.65
2023-05-19T20:43:33.250Z,35.52
2023-05-19T20:46:03.863Z,34.84
2023-05-19T20:48:32.493Z,36.24
2023-05-19T20:51:00.945Z,36.85
2023-05-19T20:53:31.335Z,36.56
2023-05-19T20:55:59.868Z,36.48
2023-05-19T20:58:30.389Z,36.03
2023-05-19T21:00:58.770Z,35.78
2023-05-19T21:03:28.862Z,35.37
2023-05-19T21:05:57.694Z,35.28
2023-05-19T21:08:26.609Z,35.42
2023-05-19T21:10:56.296Z,34.90
2023-05-19T21:13:24.706Z,34.98
2023-05-19T21:15:53.581Z,34.31
2023-05-19T21:18:21.987Z,35.54
2023-05-19T21:20:50.707Z,35.49
2023-05-19T21:23:18.967Z,35.14
2023-05-19T21:25:47.901Z,35.62
2023-05-19T21:28:17.525Z,36.51
2023-05-19T21:30:49.215Z,36.81
2023-05-19T21:33:17.382Z,35.55
2023-05-19T21:35:46.514Z,36.86
2023-05-19T21:38:23.238Z,36.73
2023-05-19T21:40:52.543Z,37.03
2023-05-19T21:43:22.654Z,36.06
2023-05-19T21:45:51.746Z,36.96
2023-05-19T21:48:20.172Z,37.16
2023-05-19T21:50:54.160Z,37.09
2023-05-19T21:53:22.539Z,37.53
2023-05-19T21:55:50.993Z,37.65
2023-05-19T21:58:19.489Z,37.85
2023-05-19T22:00:51.300Z,37.14
2023-05-19T22:03:20.026Z,37.24
2023-05-19T22:05:50.256Z,35.94
2023-05-19T22:08:19.201Z,36.80
2023-05-19T22:10:50.683Z,35.89
2023-05-19T22:13:19.167Z,37.47
2023-05-19T22:15:47.968Z,37.24
2023-05-19T22:18:18.073Z,36.97
2023-05-19T22:20:46.852Z,38.06
2023-05-19T22:23:16.015Z,38.12
2023-05-19T22:25:44.753Z,37.71
2023-05-19T22:28:13.333Z,37.75
2023-05-19T22:30:42.867Z,36.98
2023-05-19T22:33:12.515Z,36.65
2023-05-19T22:35:43.315Z,36.11
2023-05-19T22:38:11.894Z,37.00
2023-05-19T22:40:40.929Z,36.35
2023-05-19T22:43:09.311Z,35.85
2023-05-19T22:45:38.555Z,35.77
2023-05-19T22:48:07.854Z,36.19
2023-05-19T22:50:36.457Z,36.89
2023-05-19T22:53:06.553Z,36.09
2023-05-19T22:55:35.500Z,35.98
2023-05-19T22:58:04.326Z,35.91
2023-05-19T23:00:33.322Z,37.42
2023-05-19T23:03:01.847Z,36.54
2023-05-19T23:05:30.754Z,36.92
2023-05-19T23:07:59.143Z,37.07
2023-05-19T23:10:29.253Z,36.74
2023-05-19T23:12:57.746Z,36.72
2023-05-19T23:15:26.186Z,36.82
2023-05-19T23:17:54.726Z,37.40
2023-05-19T23:20:23.525Z,37.17
2023-05-19T23:22:51.921Z,36.72
2023-05-19T23:25:20.655Z,37.20
2023-05-19T23:27:50.264Z,36.15
2023-05-19T23:30:19.530Z,36.75
2023-05-19T23:32:47.793Z,37.76
2023-05-19T23:35:18.402Z,37.53
2023-05-19T23:37:46.914Z,38.40
2023-05-19T23:40:16.028Z,37.10
2023-05-19T23:42:45.076Z,36.94
2023-05-19T23:45:14.999Z,36.58
2023-05-19T23:47:44.102Z,37.57
2023-05-19T23:50:13.139Z,38.34
2023-05-19T23:52:41.522Z,38.35
2023-05-19T23:55:12.761Z,38.49
2023-05-19T23:57:41.092Z,37.81
